Flight Briefing for CPX13

Departure Arrival
Incheon International Airport (RKSI)
Click to view FAA NOTAMS
Ted Stevens Anchorage International Airport (PANC)
Click to view FAA NOTAMS
Departure Time Arrival Time
N/A N/A
Aircraft Distance
MD-11SF 3793nm
Departure METAR Arrival METAR
RKSI 152100Z 32011KT 7000 BKN030 M04/M09 Q1024 NOSIG PANC 152053Z 00000KT 10SM FEW002 M11/M17 A3004 RMK AO2 SLP177 FG BNK DSNT NE T11111172 51003
Suggested Route
EGOBA1L EGOBA G597 KAE G597 LANAT Y51 KAGIS A590 SELDM A590 PORGE A590 HAMND NEELL6


View recent IFR Routes data
Notes



Charts and Procedures

Charts for RKSI
No chart available
Charts for PANC
No chart available

Ventusky Weather